createdAt,value
2018-09-06T00:01:01.097Z,6.63
2018-09-06T00:03:05.177Z,5.30
2018-09-06T00:05:08.741Z,5.37
2018-09-06T00:07:11.928Z,5.00
2018-09-06T00:09:15.134Z,6.83
2018-09-06T00:11:18.918Z,10.53
2018-09-06T00:13:22.117Z,5.20
2018-09-06T00:15:25.535Z,6.10
2018-09-06T00:17:29.416Z,6.00
2018-09-06T00:19:32.619Z,7.20
2018-09-06T00:21:35.881Z,17.47
2018-09-06T00:23:39.477Z,6.03
2018-09-06T00:25:42.743Z,5.50
2018-09-06T00:27:46.305Z,8.93
2018-09-06T00:29:49.506Z,6.63
2018-09-06T00:31:52.713Z,6.63
2018-09-06T00:33:55.921Z,4.97
2018-09-06T00:35:59.115Z,6.03
2018-09-06T00:38:02.941Z,5.73
2018-09-06T00:40:06.613Z,8.10
2018-09-06T00:42:10.330Z,5.23
2018-09-06T00:44:13.858Z,6.00
2018-09-06T00:46:17.693Z,5.77
2018-09-06T00:48:21.216Z,7.00
2018-09-06T00:50:24.420Z,7.13
2018-09-06T00:52:27.640Z,7.03
2018-09-06T00:54:31.492Z,5.80
2018-09-06T00:56:35.055Z,7.23
2018-09-06T00:58:38.249Z,9.37
2018-09-06T01:00:42.072Z,11.50
2018-09-06T01:02:45.423Z,12.33
2018-09-06T01:04:48.596Z,9.30
2018-09-06T01:06:51.984Z,9.73
2018-09-06T01:08:55.140Z,6.80
2018-09-06T01:10:58.341Z,5.00
2018-09-06T01:13:02.323Z,7.77
2018-09-06T01:15:05.499Z,6.50
2018-09-06T01:17:08.676Z,6.57
2018-09-06T01:19:12.236Z,8.90
2018-09-06T01:21:15.409Z,10.60
2018-09-06T01:23:18.583Z,6.67
2018-09-06T01:25:22.575Z,5.87
2018-09-06T01:27:26.095Z,5.33
2018-09-06T01:29:29.272Z,6.10
2018-09-06T01:31:32.656Z,9.00
2018-09-06T01:33:35.896Z,7.57
2018-09-06T01:35:43.695Z,6.10
2018-09-06T01:37:47.129Z,8.80
2018-09-06T01:39:50.788Z,9.50
2018-09-06T01:41:53.952Z,7.40
2018-09-06T01:43:57.148Z,6.50
2018-09-06T01:46:00.360Z,11.17
2018-09-06T01:48:03.881Z,8.50
2018-09-06T01:50:07.771Z,6.43
2018-09-06T01:52:11.493Z,8.17
2018-09-06T01:54:14.679Z,5.67
2018-09-06T01:56:18.367Z,7.90
2018-09-06T01:58:21.561Z,8.37
2018-09-06T02:00:24.744Z,10.20
2018-09-06T02:02:27.925Z,10.50
2018-09-06T02:04:31.134Z,7.83
2018-09-06T02:06:34.299Z,7.73
2018-09-06T02:08:37.743Z,8.13
2018-09-06T02:10:40.941Z,8.07
2018-09-06T02:12:44.135Z,6.47
2018-09-06T02:14:47.592Z,18.20
2018-09-06T02:16:50.834Z,9.73
2018-09-06T02:18:54.016Z,9.07
2018-09-06T02:20:57.532Z,8.30
2018-09-06T02:23:00.746Z,9.73
2018-09-06T02:25:04.149Z,9.17
2018-09-06T02:27:07.943Z,7.50
2018-09-06T02:29:11.356Z,6.87
2018-09-06T02:31:14.567Z,10.67
2018-09-06T02:33:18.156Z,10.87
2018-09-06T02:35:21.939Z,8.90
2018-09-06T02:37:25.129Z,10.23
2018-09-06T02:39:28.340Z,12.70
2018-09-06T02:41:31.537Z,9.90
2018-09-06T02:43:34.751Z,9.50
2018-09-06T02:45:38.365Z,17.73
2018-09-06T02:47:47.036Z,10.80
2018-09-06T02:49:55.500Z,10.07
2018-09-06T02:51:58.757Z,8.67
2018-09-06T02:54:02.044Z,10.03
2018-09-06T02:56:05.724Z,11.07
2018-09-06T02:58:08.919Z,9.87
2018-09-06T03:00:12.186Z,9.97
2018-09-06T03:02:15.376Z,9.97
2018-09-06T03:04:18.628Z,10.80
2018-09-06T03:06:21.836Z,10.47
2018-09-06T03:08:25.049Z,15.40
2018-09-06T03:10:34.016Z,14.17
2018-09-06T03:12:37.201Z,13.43
2018-09-06T03:14:40.758Z,12.57
2018-09-06T03:16:44.044Z,15.90
2018-09-06T03:18:47.535Z,12.40
2018-09-06T03:20:51.189Z,12.77
2018-09-06T03:22:54.369Z,13.00
2018-09-06T03:24:57.618Z,16.83
2018-09-06T03:27:00.888Z,13.17
2018-09-06T03:29:04.087Z,12.80
2018-09-06T03:31:07.588Z,15.00
2018-09-06T03:33:11.440Z,13.70
2018-09-06T03:35:14.624Z,16.17
2018-09-06T03:37:17.840Z,15.23
2018-09-06T03:39:21.040Z,14.07
2018-09-06T03:41:24.220Z,11.03
2018-09-06T03:43:27.401Z,16.63
2018-09-06T03:45:30.949Z,16.47
2018-09-06T03:47:34.172Z,17.10
2018-09-06T03:49:37.812Z,14.33
2018-09-06T03:51:41.004Z,15.60
2018-09-06T03:53:44.319Z,17.30
2018-09-06T03:55:47.707Z,16.63
2018-09-06T03:57:50.888Z,16.40
2018-09-06T03:59:54.192Z,27.53
2018-09-06T04:01:57.736Z,18.43
2018-09-06T04:04:01.245Z,15.87
2018-09-06T04:06:04.778Z,17.70
2018-09-06T04:08:07.985Z,17.80
2018-09-06T04:10:11.562Z,20.40
2018-09-06T04:12:14.735Z,15.70
2018-09-06T04:14:17.945Z,21.00
2018-09-06T04:16:21.124Z,15.63
2018-09-06T04:18:24.613Z,22.37
2018-09-06T04:20:27.956Z,20.63
2018-09-06T04:22:31.508Z,17.87
2018-09-06T04:24:35.662Z,20.40
2018-09-06T04:26:39.524Z,26.27
2018-09-06T04:28:42.799Z,23.30
2018-09-06T04:30:46.328Z,20.77
2018-09-06T04:32:49.520Z,21.37
2018-09-06T04:34:52.720Z,20.87
2018-09-06T04:36:55.935Z,17.67
2018-09-06T04:38:59.124Z,21.10
2018-09-06T04:41:02.348Z,18.70
2018-09-06T04:43:05.792Z,19.13
2018-09-06T04:45:08.996Z,22.67
2018-09-06T04:47:12.187Z,25.63
2018-09-06T04:49:15.956Z,22.33
2018-09-06T04:51:19.140Z,20.87
2018-09-06T04:53:22.345Z,19.80
2018-09-06T04:55:25.536Z,18.77
2018-09-06T04:57:28.990Z,22.73
2018-09-06T04:59:32.232Z,22.73
2018-09-06T05:01:35.411Z,21.30
2018-09-06T05:03:38.803Z,21.13
2018-09-06T05:05:42.012Z,23.00
2018-09-06T05:07:45.456Z,24.73
2018-09-06T05:09:48.686Z,23.03
2018-09-06T05:11:51.880Z,20.20
2018-09-06T05:13:55.520Z,22.60
2018-09-06T05:15:58.709Z,24.20
2018-09-06T05:18:01.926Z,22.50
2018-09-06T05:20:05.705Z,22.00
2018-09-06T05:22:08.934Z,32.70
2018-09-06T05:24:12.263Z,39.37
2018-09-06T05:26:15.776Z,37.87
2018-09-06T05:28:19.033Z,26.03
2018-09-06T05:30:22.221Z,27.07
2018-09-06T05:32:26.260Z,29.73
2018-09-06T05:34:29.435Z,23.83
2018-09-06T05:36:32.701Z,26.63
2018-09-06T05:38:36.699Z,24.77
2018-09-06T05:40:40.092Z,22.87
2018-09-06T05:42:43.293Z,26.83
2018-09-06T05:44:46.825Z,23.70
2018-09-06T05:46:50.093Z,24.00
2018-09-06T05:48:53.720Z,25.50
2018-09-06T05:50:56.955Z,24.00
2018-09-06T05:53:01.514Z,21.90
2018-09-06T05:55:05.089Z,24.63
2018-09-06T05:57:08.266Z,22.37
2018-09-06T05:59:11.475Z,22.53
2018-09-06T06:01:14.674Z,24.93
2018-09-06T06:03:18.708Z,20.77
2018-09-06T06:05:21.911Z,21.43
2018-09-06T06:07:35.668Z,21.77
2018-09-06T06:09:38.876Z,26.90
2018-09-06T06:11:42.093Z,27.03
2018-09-06T06:13:45.812Z,26.47
2018-09-06T06:15:49.297Z,26.50
2018-09-06T06:17:52.674Z,27.50
2018-09-06T06:19:55.894Z,32.27
2018-09-06T06:21:59.638Z,34.77
2018-09-06T06:24:03.167Z,32.63
2018-09-06T06:26:07.272Z,29.47
2018-09-06T06:28:10.960Z,29.97
2018-09-06T06:30:14.227Z,27.07
2018-09-06T06:32:17.472Z,27.40
2018-09-06T06:34:20.937Z,29.10
2018-09-06T06:36:24.456Z,29.93
2018-09-06T06:38:27.964Z,33.53
2018-09-06T06:40:31.832Z,30.77
2018-09-06T06:42:35.032Z,23.93
2018-09-06T06:44:38.221Z,25.93
2018-09-06T06:46:41.903Z,27.90
2018-09-06T06:48:45.127Z,28.07
2018-09-06T06:50:48.623Z,33.17
2018-09-06T06:52:52.177Z,32.17
2018-09-06T06:54:55.369Z,28.13
2018-09-06T06:56:58.586Z,32.27
2018-09-06T06:59:02.770Z,29.60
2018-09-06T07:01:06.006Z,28.27
2018-09-06T07:03:11.648Z,30.57
2018-09-06T07:05:14.852Z,31.00
2018-09-06T07:07:18.028Z,35.27
2018-09-06T07:09:21.196Z,22.83
2018-09-06T07:11:24.391Z,27.67
2018-09-06T07:13:27.588Z,29.50
2018-09-06T07:15:30.797Z,28.10
2018-09-06T07:17:34.022Z,28.50
2018-09-06T07:19:37.216Z,27.40
2018-09-06T07:21:40.416Z,26.70
2018-09-06T07:23:43.629Z,26.67
2018-09-06T07:25:46.815Z,31.73
2018-09-06T07:27:50.024Z,32.60
2018-09-06T07:29:53.554Z,25.37
2018-09-06T07:31:56.934Z,25.70
2018-09-06T07:34:00.108Z,25.37
2018-09-06T07:36:04.012Z,27.57
2018-09-06T07:38:07.560Z,29.90
2018-09-06T07:40:11.107Z,34.47
2018-09-06T07:42:14.716Z,34.70
2018-09-06T07:44:18.229Z,30.50
2018-09-06T07:46:21.767Z,27.30
2018-09-06T07:48:24.976Z,28.80
2018-09-06T07:50:28.500Z,29.43
2018-09-06T07:52:32.220Z,28.10
2018-09-06T07:54:35.609Z,28.83
2018-09-06T07:56:39.089Z,26.90
2018-09-06T07:58:42.276Z,31.67
2018-09-06T08:00:45.492Z,27.37
2018-09-06T08:02:49.385Z,30.23
2018-09-06T08:04:52.552Z,29.23
2018-09-06T08:06:55.708Z,29.23
2018-09-06T08:08:59.030Z,25.27
2018-09-06T08:11:02.253Z,30.50
2018-09-06T08:13:05.539Z,26.77
2018-09-06T08:15:09.187Z,29.80
2018-09-06T08:17:12.328Z,27.63
2018-09-06T08:19:15.520Z,27.37
2018-09-06T08:21:18.742Z,31.97
2018-09-06T08:23:22.654Z,27.90
2018-09-06T08:25:26.184Z,30.77
2018-09-06T08:27:29.405Z,27.67
2018-09-06T08:29:32.584Z,29.73
2018-09-06T08:31:36.652Z,27.00
2018-09-06T08:33:39.886Z,28.33
2018-09-06T08:35:43.107Z,27.53
2018-09-06T08:37:46.311Z,30.10
2018-09-06T08:39:49.496Z,28.33
2018-09-06T08:41:52.712Z,30.77
2018-09-06T08:43:55.928Z,31.80
2018-09-06T08:45:59.113Z,27.30
2018-09-06T08:48:02.992Z,28.53
2018-09-06T08:50:06.775Z,25.40
2018-09-06T08:52:10.091Z,27.00
2018-09-06T08:54:13.352Z,32.23
2018-09-06T08:56:16.564Z,26.80
2018-09-06T08:58:19.887Z,28.20
2018-09-06T09:00:23.288Z,25.27
2018-09-06T09:02:26.817Z,25.87
2018-09-06T09:04:30.496Z,27.87
2018-09-06T09:06:34.012Z,32.90
2018-09-06T09:08:37.719Z,25.93
2018-09-06T09:10:40.893Z,28.53
2018-09-06T09:12:44.072Z,24.87
2018-09-06T09:14:47.592Z,29.53
2018-09-06T09:16:51.184Z,24.90
2018-09-06T09:18:54.393Z,24.80
2018-09-06T09:20:58.172Z,22.70
2018-09-06T09:23:01.361Z,22.97
2018-09-06T09:25:05.330Z,22.47
2018-09-06T09:27:08.658Z,24.00
2018-09-06T09:29:11.869Z,35.33
2018-09-06T09:31:15.086Z,24.40
2018-09-06T09:33:18.324Z,20.17
2018-09-06T09:35:21.525Z,28.00
2018-09-06T09:37:25.068Z,21.23
2018-09-06T09:39:28.916Z,21.47
2018-09-06T09:41:32.469Z,24.20
2018-09-06T09:43:36.344Z,21.77
2018-09-06T09:45:39.856Z,24.83
2018-09-06T09:47:43.369Z,24.87
2018-09-06T09:49:46.569Z,21.87
2018-09-06T09:51:49.980Z,21.47
2018-09-06T09:53:53.206Z,22.00
2018-09-06T09:55:56.622Z,21.73
2018-09-06T09:58:00.060Z,23.00
2018-09-06T10:00:03.281Z,15.77
2018-09-06T10:02:11.960Z,20.57
2018-09-06T10:04:21.397Z,19.00
2018-09-06T10:06:30.105Z,22.33
2018-09-06T10:08:39.016Z,18.50
2018-09-06T10:10:42.412Z,19.13
2018-09-06T10:12:46.465Z,15.67
2018-09-06T10:14:49.652Z,17.17
2018-09-06T10:16:53.199Z,17.30
2018-09-06T10:18:56.680Z,19.87
2018-09-06T10:21:00.310Z,21.97
2018-09-06T10:23:03.812Z,19.23
2018-09-06T10:25:07.439Z,16.67
2018-09-06T10:27:10.988Z,14.70
2018-09-06T10:29:14.512Z,16.60
2018-09-06T10:31:18.317Z,15.47
2018-09-06T10:33:21.815Z,18.20
2018-09-06T10:35:25.758Z,17.43
2018-09-06T10:37:29.476Z,16.23
2018-09-06T10:39:32.657Z,15.10
2018-09-06T10:41:36.321Z,18.27
2018-09-06T10:43:40.192Z,16.30
2018-09-06T10:45:43.380Z,14.50
2018-09-06T10:47:46.949Z,16.13
2018-09-06T10:49:50.149Z,17.40
2018-09-06T10:51:53.680Z,18.50
2018-09-06T10:53:56.857Z,16.07
2018-09-06T10:56:00.068Z,20.50
2018-09-06T10:58:03.499Z,13.57
2018-09-06T11:00:06.698Z,18.03
2018-09-06T11:02:10.829Z,18.80
2018-09-06T11:04:14.904Z,15.17
2018-09-06T11:06:18.196Z,19.50
2018-09-06T11:08:21.487Z,15.27
2018-09-06T11:10:24.816Z,19.50
2018-09-06T11:12:28.344Z,17.23
2018-09-06T11:14:31.896Z,18.70
2018-09-06T11:16:35.416Z,14.23
2018-09-06T11:18:39.032Z,14.20
2018-09-06T11:20:42.433Z,13.30
2018-09-06T11:22:46.060Z,12.97
2018-09-06T11:24:49.827Z,14.03
2018-09-06T11:26:53.220Z,12.77
2018-09-06T11:28:56.436Z,13.70
2018-09-06T11:30:59.796Z,13.57
2018-09-06T11:33:03.359Z,14.50
2018-09-06T11:35:06.547Z,11.23
2018-09-06T11:37:10.120Z,20.20
2018-09-06T11:39:13.299Z,13.43
2018-09-06T11:41:16.477Z,13.07
2018-09-06T11:43:19.748Z,12.90
2018-09-06T11:45:23.192Z,14.37
2018-09-06T11:47:26.486Z,13.00
2018-09-06T11:49:29.745Z,10.63
2018-09-06T11:51:33.291Z,11.37
2018-09-06T11:53:37.005Z,13.65
2018-09-06T11:55:41.060Z,7.78
2018-09-06T11:57:44.820Z,10.20
2018-09-06T11:59:48.904Z,10.00
2018-09-06T12:01:52.644Z,9.38
2018-09-06T12:03:57.059Z,9.80
2018-09-06T12:06:00.567Z,15.00
2018-09-06T12:08:04.809Z,12.18
2018-09-06T12:10:08.416Z,11.57
2018-09-06T12:12:12.182Z,9.10
2018-09-06T12:14:15.882Z,20.15
2018-09-06T12:16:19.944Z,8.28
2018-09-06T12:18:23.680Z,10.78
2018-09-06T12:20:27.461Z,11.00
2018-09-06T12:22:31.424Z,13.68
2018-09-06T12:24:35.140Z,13.10
2018-09-06T12:26:39.556Z,17.70
2018-09-06T12:28:43.640Z,9.30
2018-09-06T12:30:47.704Z,9.50
2018-09-06T12:32:51.592Z,10.65
2018-09-06T12:34:55.309Z,8.05
2018-09-06T12:36:58.560Z,7.50
2018-09-06T12:39:02.135Z,8.65
2018-09-06T12:41:05.636Z,10.68
2018-09-06T12:43:09.132Z,8.45
2018-09-06T12:45:12.492Z,7.05
2018-09-06T12:47:16.039Z,9.30
2018-09-06T12:49:19.212Z,7.62
2018-09-06T12:51:22.733Z,10.40
2018-09-06T12:53:25.988Z,8.73
2018-09-06T12:55:29.976Z,8.37
2018-09-06T12:57:33.580Z,9.40
2018-09-06T12:59:36.836Z,12.23
2018-09-06T13:01:40.908Z,7.70
2018-09-06T13:03:44.651Z,7.85
2018-09-06T13:05:47.840Z,9.07
2018-09-06T13:07:51.615Z,18.07
2018-09-06T13:09:54.822Z,8.80
2018-09-06T13:11:58.221Z,8.00
2018-09-06T13:14:01.860Z,7.90
2018-09-06T13:16:05.956Z,8.28
2018-09-06T13:18:09.768Z,7.97
2018-09-06T13:20:13.284Z,8.83
2018-09-06T13:22:16.752Z,10.17
2018-09-06T13:24:19.917Z,15.80
2018-09-06T13:26:23.833Z,8.87
2018-09-06T13:28:27.529Z,10.87
2018-09-06T13:30:30.704Z,17.67
2018-09-06T13:32:33.886Z,11.03
2018-09-06T13:34:37.416Z,9.57
2018-09-06T13:36:40.596Z,18.40
2018-09-06T13:38:43.816Z,15.10
2018-09-06T13:40:46.996Z,15.90
2018-09-06T13:42:50.423Z,9.50
2018-09-06T13:44:53.616Z,9.57
2018-09-06T13:46:57.447Z,8.08
2018-09-06T13:49:01.185Z,10.88
2018-09-06T13:51:04.972Z,9.90
2018-09-06T13:53:08.140Z,9.03
2018-09-06T13:55:11.696Z,14.10
2018-09-06T13:57:15.046Z,11.17
2018-09-06T13:59:18.853Z,11.70
2018-09-06T14:01:22.080Z,10.30
2018-09-06T14:03:25.275Z,9.67
2018-09-06T14:05:28.444Z,12.57
2018-09-06T14:07:31.639Z,9.87
2018-09-06T14:09:34.837Z,10.20
2018-09-06T14:11:38.032Z,10.50
2018-09-06T14:13:41.680Z,11.77
2018-09-06T14:15:44.888Z,8.53
2018-09-06T14:17:48.066Z,8.40
2018-09-06T14:19:51.448Z,9.30
2018-09-06T14:21:54.619Z,8.47
2018-09-06T14:23:57.853Z,9.93
2018-09-06T14:26:01.196Z,7.70
2018-09-06T14:28:04.401Z,6.77
2018-09-06T14:30:08.300Z,10.10
2018-09-06T14:32:11.526Z,11.13
2018-09-06T14:34:14.856Z,8.30
2018-09-06T14:36:18.113Z,10.70
2018-09-06T14:38:21.462Z,9.10
2018-09-06T14:40:24.828Z,9.53
2018-09-06T14:42:28.034Z,15.00
2018-09-06T14:44:31.368Z,13.03
2018-09-06T14:46:34.670Z,8.30
2018-09-06T14:48:37.848Z,7.20
2018-09-06T14:50:41.029Z,7.17
2018-09-06T14:52:44.876Z,15.43
2018-09-06T14:54:48.104Z,7.60
2018-09-06T14:56:52.147Z,10.13
2018-09-06T14:58:55.331Z,8.83
2018-09-06T15:00:58.688Z,9.77
2018-09-06T15:03:02.053Z,11.17
2018-09-06T15:05:05.548Z,9.40
2018-09-06T15:07:09.069Z,12.43
2018-09-06T15:09:12.476Z,9.13
2018-09-06T15:11:15.768Z,11.97
2018-09-06T15:13:18.988Z,8.63
2018-09-06T15:15:22.931Z,9.33
2018-09-06T15:17:26.316Z,13.57
2018-09-06T15:19:29.540Z,10.13
2018-09-06T15:21:32.712Z,11.80
2018-09-06T15:23:35.896Z,9.87
2018-09-06T15:25:39.557Z,11.83
2018-09-06T15:27:43.021Z,12.83
2018-09-06T15:29:46.451Z,15.03
2018-09-06T15:31:49.705Z,8.90
2018-09-06T15:33:53.259Z,7.00
2018-09-06T15:35:56.462Z,9.60
2018-09-06T15:37:59.961Z,12.00
2018-09-06T15:40:03.337Z,10.17
2018-09-06T15:42:06.852Z,9.50
2018-09-06T15:44:10.334Z,8.60
2018-09-06T15:46:14.073Z,10.93
2018-09-06T15:48:17.289Z,17.23
2018-09-06T15:50:20.804Z,14.73
2018-09-06T15:52:24.016Z,8.87
2018-09-06T15:54:27.190Z,13.73
2018-09-06T15:56:30.478Z,8.90
2018-09-06T15:58:33.695Z,7.57
2018-09-06T16:00:36.865Z,8.57
2018-09-06T16:02:40.084Z,7.40
2018-09-06T16:04:43.736Z,7.97
2018-09-06T16:06:46.960Z,13.40
2018-09-06T16:08:50.141Z,8.50
2018-09-06T16:10:53.504Z,10.20
2018-09-06T16:12:56.831Z,12.30
2018-09-06T16:14:59.988Z,9.23
2018-09-06T16:17:03.604Z,12.07
2018-09-06T16:19:07.252Z,13.90
2018-09-06T16:21:10.760Z,10.00
2018-09-06T16:23:14.179Z,9.20
2018-09-06T16:25:19.017Z,8.30
2018-09-06T16:27:22.180Z,9.73
2018-09-06T16:29:25.360Z,10.27
2018-09-06T16:31:28.863Z,9.63
2018-09-06T16:33:32.300Z,8.60
2018-09-06T16:35:36.477Z,12.13
2018-09-06T16:37:39.952Z,12.97
2018-09-06T16:39:43.476Z,9.83
2018-09-06T16:41:46.988Z,12.13
2018-09-06T16:43:50.137Z,9.37
2018-09-06T16:45:53.688Z,8.90
2018-09-06T16:47:57.061Z,13.23
2018-09-06T16:50:00.227Z,13.27
2018-09-06T16:52:03.482Z,17.10
2018-09-06T16:54:06.992Z,9.00
2018-09-06T16:56:10.188Z,7.77
2018-09-06T16:58:13.388Z,8.33
2018-09-06T17:00:16.917Z,6.87
2018-09-06T17:02:20.133Z,9.40
2018-09-06T17:04:23.405Z,11.53
2018-09-06T17:06:26.767Z,11.13
2018-09-06T17:08:30.020Z,14.20
2018-09-06T17:10:33.412Z,9.67
2018-09-06T17:12:36.591Z,10.70
2018-09-06T17:14:40.600Z,10.10
2018-09-06T17:16:43.826Z,9.03
2018-09-06T17:18:47.272Z,9.73
2018-09-06T17:20:50.457Z,9.17
2018-09-06T17:22:53.652Z,11.80
2018-09-06T17:24:56.993Z,9.90
2018-09-06T17:27:00.327Z,9.70
2018-09-06T17:29:03.980Z,10.10
2018-09-06T17:31:07.933Z,8.90
2018-09-06T17:33:11.094Z,9.30
2018-09-06T17:35:14.909Z,10.40
2018-09-06T17:37:18.244Z,15.07
2018-09-06T17:39:21.505Z,12.90
2018-09-06T17:41:25.326Z,10.30
2018-09-06T17:43:28.512Z,11.80
2018-09-06T17:45:31.708Z,10.20
2018-09-06T17:47:35.163Z,10.13
2018-09-06T17:49:38.540Z,9.63
2018-09-06T17:51:41.724Z,16.03
2018-09-06T17:53:45.268Z,15.30
2018-09-06T17:55:48.469Z,8.60
2018-09-06T17:57:52.048Z,14.40
2018-09-06T17:59:55.252Z,11.03
2018-09-06T18:01:58.424Z,10.43
2018-09-06T18:04:02.092Z,15.17
2018-09-06T18:06:05.612Z,15.27
2018-09-06T18:08:09.203Z,11.13
2018-09-06T18:10:13.031Z,11.23
2018-09-06T18:12:16.216Z,13.93
2018-09-06T18:14:19.767Z,15.03
2018-09-06T18:16:23.613Z,12.20
2018-09-06T18:18:26.867Z,13.43
2018-09-06T18:20:30.416Z,11.23
2018-09-06T18:22:34.404Z,9.10
2018-09-06T18:24:37.663Z,11.43
2018-09-06T18:26:41.211Z,11.10
2018-09-06T18:28:44.444Z,14.57
2018-09-06T18:30:47.656Z,11.70
2018-09-06T18:32:51.261Z,11.40
2018-09-06T18:34:54.804Z,14.33
2018-09-06T18:36:58.029Z,11.57
2018-09-06T18:39:01.553Z,23.13
2018-09-06T18:41:04.718Z,13.90
2018-09-06T18:43:08.138Z,13.00
2018-09-06T18:45:11.657Z,11.90
2018-09-06T18:47:15.104Z,10.20
2018-09-06T18:49:18.342Z,17.40
2018-09-06T18:51:21.534Z,13.50
2018-09-06T18:53:25.217Z,17.70
2018-09-06T18:55:29.850Z,17.10
2018-09-06T18:57:33.848Z,13.80
2018-09-06T18:59:37.085Z,15.13
2018-09-06T19:01:40.501Z,10.93
2018-09-06T19:03:43.704Z,13.90
2018-09-06T19:05:46.884Z,11.43
2018-09-06T19:07:50.256Z,14.87
2018-09-06T19:09:53.763Z,12.93
2018-09-06T19:11:57.013Z,15.50
2018-09-06T19:14:00.727Z,15.00
2018-09-06T19:16:04.601Z,15.83
2018-09-06T19:18:07.831Z,11.73
2018-09-06T19:20:11.092Z,13.70
2018-09-06T19:22:14.402Z,9.50
2018-09-06T19:24:17.919Z,12.83
2018-09-06T19:26:21.625Z,11.00
2018-09-06T19:28:24.872Z,17.83
2018-09-06T19:30:28.490Z,18.33
2018-09-06T19:32:31.872Z,13.47
2018-09-06T19:34:35.321Z,16.37
2018-09-06T19:36:38.728Z,17.03
2018-09-06T19:38:41.943Z,15.03
2018-09-06T19:40:45.122Z,15.07
2018-09-06T19:42:48.673Z,13.83
2018-09-06T19:44:51.931Z,16.93
2018-09-06T19:46:55.480Z,18.77
2018-09-06T19:48:58.724Z,15.83
2018-09-06T19:51:02.124Z,18.83
2018-09-06T19:53:05.686Z,21.00
2018-09-06T19:55:08.892Z,15.97
2018-09-06T19:57:12.124Z,17.13
2018-09-06T19:59:15.324Z,15.20
2018-09-06T20:01:18.562Z,16.00
2018-09-06T20:03:21.769Z,17.93
2018-09-06T20:05:24.977Z,15.77
2018-09-06T20:07:28.168Z,19.77
2018-09-06T20:09:31.379Z,16.80
2018-09-06T20:11:34.623Z,23.70
2018-09-06T20:13:37.817Z,18.43
2018-09-06T20:15:41.394Z,20.70
2018-09-06T20:17:44.916Z,15.90
2018-09-06T20:19:48.141Z,22.57
2018-09-06T20:21:51.384Z,18.93
2018-09-06T20:23:54.567Z,20.10
2018-09-06T20:25:57.806Z,21.80
2018-09-06T20:28:01.747Z,18.53
2018-09-06T20:30:05.452Z,16.80
2018-09-06T20:32:08.633Z,18.77
2018-09-06T20:34:11.815Z,22.27
2018-09-06T20:36:15.381Z,18.13
2018-09-06T20:38:18.792Z,20.27
2018-09-06T20:40:21.984Z,24.17
2018-09-06T20:42:25.613Z,18.10
2018-09-06T20:44:29.032Z,22.23
2018-09-06T20:46:32.424Z,18.13
2018-09-06T20:48:35.776Z,23.23
2018-09-06T20:50:39.658Z,22.90
2018-09-06T20:52:42.924Z,20.43
2018-09-06T20:54:46.476Z,20.00
2018-09-06T20:56:49.960Z,20.60
2018-09-06T20:58:53.364Z,21.90
2018-09-06T21:00:56.600Z,21.77
2018-09-06T21:02:59.819Z,21.37
2018-09-06T21:05:03.503Z,19.47
2018-09-06T21:07:07.021Z,20.07
2018-09-06T21:09:10.193Z,22.00
2018-09-06T21:11:13.458Z,21.67
2018-09-06T21:13:16.766Z,23.07
2018-09-06T21:15:19.954Z,29.97
2018-09-06T21:17:23.279Z,22.00
2018-09-06T21:19:26.537Z,34.97
2018-09-06T21:21:29.989Z,27.93
2018-09-06T21:23:33.506Z,25.20
2018-09-06T21:25:36.864Z,24.83
2018-09-06T21:27:40.472Z,32.83
2018-09-06T21:29:43.677Z,23.10
2018-09-06T21:31:47.052Z,28.57
2018-09-06T21:33:50.281Z,28.60
2018-09-06T21:35:53.541Z,31.90
2018-09-06T21:37:56.760Z,36.37
2018-09-06T21:40:00.311Z,30.03
2018-09-06T21:42:04.036Z,33.43
2018-09-06T21:44:07.501Z,30.23
2018-09-06T21:46:11.128Z,31.10
2018-09-06T21:48:14.325Z,37.70
2018-09-06T21:50:17.512Z,35.30
2018-09-06T21:52:20.728Z,32.83
2018-09-06T21:54:23.933Z,32.83
2018-09-06T21:56:27.202Z,32.77
2018-09-06T21:58:30.414Z,30.00
2018-09-06T22:00:34.300Z,30.53
2018-09-06T22:02:43.244Z,31.40
2018-09-06T22:04:46.448Z,36.50
2018-09-06T22:06:49.628Z,38.93
2018-09-06T22:08:52.808Z,31.73
2018-09-06T22:10:56.184Z,33.20
2018-09-06T22:12:59.412Z,34.23
2018-09-06T22:15:02.684Z,30.30
2018-09-06T22:17:06.212Z,31.83
2018-09-06T22:19:09.524Z,31.70
2018-09-06T22:21:12.756Z,31.80
2018-09-06T22:23:15.920Z,36.97
2018-09-06T22:25:19.416Z,31.23
2018-09-06T22:27:22.972Z,33.50
2018-09-06T22:29:26.144Z,37.13
2018-09-06T22:31:29.924Z,36.83
2018-09-06T22:33:33.578Z,35.03
2018-09-06T22:35:36.788Z,35.97
2018-09-06T22:37:40.287Z,33.00
2018-09-06T22:39:43.520Z,37.57
2018-09-06T22:41:47.056Z,36.50
2018-09-06T22:43:50.666Z,34.53
2018-09-06T22:45:53.895Z,36.83
2018-09-06T22:47:57.068Z,36.47
2018-09-06T22:50:00.336Z,39.77
2018-09-06T22:52:04.280Z,34.57
2018-09-06T22:54:07.812Z,39.37
2018-09-06T22:56:11.012Z,38.00
2018-09-06T22:58:14.824Z,38.83
2018-09-06T23:00:20.189Z,41.93
2018-09-06T23:02:23.384Z,48.27
2018-09-06T23:04:26.646Z,39.57
2018-09-06T23:06:30.017Z,41.80
2018-09-06T23:08:33.565Z,43.70
2018-09-06T23:10:37.199Z,42.47
2018-09-06T23:12:40.390Z,41.40
2018-09-06T23:14:43.985Z,42.90
2018-09-06T23:16:47.196Z,44.93
2018-09-06T23:18:50.445Z,38.30
2018-09-06T23:20:53.664Z,40.60
2018-09-06T23:22:56.854Z,45.37
2018-09-06T23:25:00.043Z,39.27
2018-09-06T23:27:03.588Z,48.97
2018-09-06T23:29:06.782Z,45.50
2018-09-06T23:31:09.956Z,42.57
2018-09-06T23:33:13.169Z,45.97
2018-09-06T23:35:16.607Z,58.53
2018-09-06T23:37:20.130Z,47.17
2018-09-06T23:39:23.692Z,46.77
2018-09-06T23:41:26.884Z,48.07
2018-09-06T23:43:30.075Z,52.10
2018-09-06T23:45:33.280Z,57.30
2018-09-06T23:47:36.835Z,61.53
2018-09-06T23:49:40.100Z,57.87
2018-09-06T23:51:43.736Z,61.90
2018-09-06T23:53:46.936Z,64.97
2018-09-06T23:55:50.144Z,63.23
2018-09-06T23:57:53.324Z,61.43
2018-09-06T23:59:56.516Z,70.43
